Tebessa, Algeria

66°F / 19°C
Clear
Humidity: 49%
Dew Point: 46°F / 8°C
Wind: ESE at 8 mph / 13 km/h
Pressure: 30.09 in / 1019 hPa (Rising)
Visibility: 4.3 miles / 7.0 kilometers
Clouds:
Yesterday's Maximum: 79°F / 26°C
Yesterday's Minimum: 50°F / 10°C approx.
Yesterday's Heating Degree Days: 1 approx.
Sunrise:5:43 AM CET
Sunset:7:08 PM CET
Moon Rise:12:19 AM CET
Moon Set:10:24 AM CET
Moon Phase Waning Gibbous
NOAA Weather Radio
No local feed.
METAR DABS 252000Z 11007KT 7000 NSC 19/08 Q1019
As of: 9:00 PM CET on April 25, 2019
Observed at: Tebessa, Algeria

View Station's History

Local Satellite

Current Satellite Forecast
Region Default Local
No Yes

View Full Screen WunderMap

Forecast

Current Satellite Forecast

Features

Weather Apps

WunderRadio

Weather Underground Apps
Check out our wide variety of mobile and setup applications.

Weather Underground Applications

Top of Page

© Copyright 2019
The Weather Company, LLC